Russellville, Alabama
Current Conditions -  °F | °C
As of 11:56 AM on Friday 19 Dec 2014 (Local Time) from K1M4 Reporting Station
Few Clouds Few Clouds  
Wind Chill: 41°   Ceiling: Unl
Heat Index: 41°   Visibility: 10mi
Dew Point: 34°   Wind: 0mph
Humidity: 76%   Direction: NA
Pressure: 30.21"   Gusts: NA
Location:  34.51°N, 87.73°W
Report Text: K1M4 191756Z AUTO 00000KT 10SM FEW035 05/01 A3021 RMK AO2 58012 T00500011 10050 20033 SLP241 $
Loading
Personal Weather Stations






























Interactive Weather Map New forecast layout! Learn more

10-Day Weather Forecast

Advertisements
Track Severe Weather on mobile